Terminal Aerodrome Forecast
Issued by NWS Detroit/Pontiac, MI

Home | Current Version | Previous Version | Text Only | Print | Product List | Glossary On
Versions: 1 2 3 4 5 6 7 8 9 10 11 12 13 14 15 16 17 18 19 20 21 22 23 24
000
FTUS43 KDTX 211720
TAFFNT
TAF
KFNT 211720Z 2118/2218 22009KT P6SM SCT045
     FM212100 23011KT P6SM VCTS BKN045CB
     FM220000 21008KT P6SM OVC100
     FM220900 22010KT 6SM SHRA SCT035 OVC050
     FM221500 22012G20KT 6SM -SHRA SCT035 BKN060=

USA.gov is the U.S. government's official web portal to all federal, state and local government web resources and services.